sensor_id;sensor_type;location;lat;lon;timestamp;P1;durP1;ratioP1;P2;durP2;ratioP2
70414;SDS011;57837;52.064;113.478;2023-12-07T00:02:33;45.80;;;25.85;;
70414;SDS011;57837;52.064;113.478;2023-12-07T00:05:36;46.33;;;26.75;;
70414;SDS011;57837;52.064;113.478;2023-12-07T00:08:40;33.15;;;20.95;;
70414;SDS011;57837;52.064;113.478;2023-12-07T00:11:44;54.30;;;22.10;;
70414;SDS011;57837;52.064;113.478;2023-12-07T00:14:47;30.00;;;15.13;;
70414;SDS011;57837;52.064;113.478;2023-12-07T00:17:51;19.00;;;8.93;;
70414;SDS011;57837;52.064;113.478;2023-12-07T00:20:55;44.38;;;23.35;;
70414;SDS011;57837;52.064;113.478;2023-12-07T00:23:58;90.45;;;25.88;;
70414;SDS011;57837;52.064;113.478;2023-12-07T00:27:04;48.83;;;23.23;;
70414;SDS011;57837;52.064;113.478;2023-12-07T00:30:09;83.32;;;34.70;;
70414;SDS011;57837;52.064;113.478;2023-12-07T00:33:12;62.45;;;30.75;;
70414;SDS011;57837;52.064;113.478;2023-12-07T00:36:16;56.40;;;30.05;;
70414;SDS011;57837;52.064;113.478;2023-12-07T00:39:19;39.10;;;20.80;;
70414;SDS011;57837;52.064;113.478;2023-12-07T00:42:22;35.35;;;25.88;;
70414;SDS011;57837;52.064;113.478;2023-12-07T00:45:26;55.92;;;26.27;;
70414;SDS011;57837;52.064;113.478;2023-12-07T00:48:30;44.60;;;29.07;;
70414;SDS011;57837;52.064;113.478;2023-12-07T00:51:34;70.47;;;35.53;;
70414;SDS011;57837;52.064;113.478;2023-12-07T00:54:38;87.95;;;44.47;;
70414;SDS011;57837;52.064;113.478;2023-12-07T00:57:42;96.40;;;47.20;;
70414;SDS011;57837;52.064;113.478;2023-12-07T01:00:45;43.15;;;26.77;;
70414;SDS011;57837;52.064;113.478;2023-12-07T01:03:50;89.75;;;39.03;;
70414;SDS011;57837;52.064;113.478;2023-12-07T01:06:53;97.57;;;35.35;;
70414;SDS011;57837;52.064;113.478;2023-12-07T01:09:58;58.00;;;27.27;;
70414;SDS011;57837;52.064;113.478;2023-12-07T01:13:02;53.95;;;27.45;;
70414;SDS011;57837;52.064;113.478;2023-12-07T01:16:05;73.82;;;31.05;;
70414;SDS011;57837;52.064;113.478;2023-12-07T01:19:09;57.97;;;25.53;;
70414;SDS011;57837;52.064;113.478;2023-12-07T01:22:17;66.82;;;29.38;;
70414;SDS011;57837;52.064;113.478;2023-12-07T01:25:20;36.63;;;21.80;;
70414;SDS011;57837;52.064;113.478;2023-12-07T01:28:26;58.80;;;26.90;;
70414;SDS011;57837;52.064;113.478;2023-12-07T01:31:30;18.65;;;9.70;;
70414;SDS011;57837;52.064;113.478;2023-12-07T01:34:33;47.25;;;22.23;;
70414;SDS011;57837;52.064;113.478;2023-12-07T01:37:37;36.05;;;18.13;;
70414;SDS011;57837;52.064;113.478;2023-12-07T01:40:41;47.55;;;26.70;;
70414;SDS011;57837;52.064;113.478;2023-12-07T01:43:47;32.65;;;20.33;;
70414;SDS011;57837;52.064;113.478;2023-12-07T01:46:53;53.55;;;22.30;;
70414;SDS011;57837;52.064;113.478;2023-12-07T01:49:56;57.50;;;26.20;;
70414;SDS011;57837;52.064;113.478;2023-12-07T01:53:01;39.58;;;24.00;;
70414;SDS011;57837;52.064;113.478;2023-12-07T01:56:11;39.65;;;23.38;;
70414;SDS011;57837;52.064;113.478;2023-12-07T01:59:15;35.90;;;18.53;;
70414;SDS011;57837;52.064;113.478;2023-12-07T02:02:19;79.25;;;29.42;;
70414;SDS011;57837;52.064;113.478;2023-12-07T02:05:23;53.28;;;26.17;;
70414;SDS011;57837;52.064;113.478;2023-12-07T02:08:28;55.42;;;27.10;;
70414;SDS011;57837;52.064;113.478;2023-12-07T02:11:31;24.45;;;15.73;;
70414;SDS011;57837;52.064;113.478;2023-12-07T02:14:36;67.47;;;33.47;;
70414;SDS011;57837;52.064;113.478;2023-12-07T02:17:48;42.83;;;24.27;;
70414;SDS011;57837;52.064;113.478;2023-12-07T02:21:04;30.37;;;22.73;;
70414;SDS011;57837;52.064;113.478;2023-12-07T02:24:30;56.83;;;26.10;;
70414;SDS011;57837;52.064;113.478;2023-12-07T02:27:37;38.30;;;24.25;;
70414;SDS011;57837;52.064;113.478;2023-12-07T02:30:51;20.57;;;13.03;;
70414;SDS011;57837;52.064;113.478;2023-12-07T02:33:55;44.17;;;24.55;;
70414;SDS011;57837;52.064;113.478;2023-12-07T02:36:59;65.63;;;27.95;;
70414;SDS011;57837;52.064;113.478;2023-12-07T02:40:06;57.95;;;26.40;;
70414;SDS011;57837;52.064;113.478;2023-12-07T02:43:13;40.80;;;18.50;;
70414;SDS011;57837;52.064;113.478;2023-12-07T02:46:18;50.47;;;23.75;;
70414;SDS011;57837;52.064;113.478;2023-12-07T02:49:21;57.53;;;29.20;;
70414;SDS011;57837;52.064;113.478;2023-12-07T02:52:25;71.97;;;33.83;;
70414;SDS011;57837;52.064;113.478;2023-12-07T02:55:29;34.13;;;20.80;;
70414;SDS011;57837;52.064;113.478;2023-12-07T02:58:33;45.03;;;26.38;;
70414;SDS011;57837;52.064;113.478;2023-12-07T03:01:37;14.10;;;12.23;;
70414;SDS011;57837;52.064;113.478;2023-12-07T03:04:42;51.13;;;28.73;;
70414;SDS011;57837;52.064;113.478;2023-12-07T03:07:49;97.55;;;38.70;;
70414;SDS011;57837;52.064;113.478;2023-12-07T03:10:54;23.67;;;14.23;;
70414;SDS011;57837;52.064;113.478;2023-12-07T03:13:57;53.78;;;22.52;;
70414;SDS011;57837;52.064;113.478;2023-12-07T03:17:01;76.93;;;34.40;;
70414;SDS011;57837;52.064;113.478;2023-12-07T03:20:08;16.75;;;10.77;;
70414;SDS011;57837;52.064;113.478;2023-12-07T03:23:15;29.40;;;18.80;;
70414;SDS011;57837;52.064;113.478;2023-12-07T03:26:20;27.00;;;15.45;;
70414;SDS011;57837;52.064;113.478;2023-12-07T03:29:23;74.47;;;32.20;;
70414;SDS011;57837;52.064;113.478;2023-12-07T03:32:28;62.43;;;27.37;;
70414;SDS011;57837;52.064;113.478;2023-12-07T03:35:32;26.77;;;14.88;;
70414;SDS011;57837;52.064;113.478;2023-12-07T03:38:41;5.30;;;4.75;;
70414;SDS011;57837;52.064;113.478;2023-12-07T03:41:44;33.83;;;14.93;;
70414;SDS011;57837;52.064;113.478;2023-12-07T03:44:50;32.33;;;15.43;;
70414;SDS011;57837;52.064;113.478;2023-12-07T03:47:56;29.95;;;15.80;;
70414;SDS011;57837;52.064;113.478;2023-12-07T03:51:01;27.52;;;18.83;;
70414;SDS011;57837;52.064;113.478;2023-12-07T03:54:05;12.20;;;10.93;;
70414;SDS011;57837;52.064;113.478;2023-12-07T03:57:10;13.18;;;11.98;;
70414;SDS011;57837;52.064;113.478;2023-12-07T04:00:15;16.67;;;10.30;;
70414;SDS011;57837;52.064;113.478;2023-12-07T04:03:19;23.93;;;13.17;;
70414;SDS011;57837;52.064;113.478;2023-12-07T04:06:24;35.80;;;15.52;;
70414;SDS011;57837;52.064;113.478;2023-12-07T04:09:29;19.10;;;15.27;;
70414;SDS011;57837;52.064;113.478;2023-12-07T04:12:33;20.33;;;14.77;;
70414;SDS011;57837;52.064;113.478;2023-12-07T04:15:37;13.15;;;11.15;;
70414;SDS011;57837;52.064;113.478;2023-12-07T04:18:43;24.50;;;10.82;;
70414;SDS011;57837;52.064;113.478;2023-12-07T04:21:48;38.60;;;23.40;;
70414;SDS011;57837;52.064;113.478;2023-12-07T04:24:51;44.40;;;15.03;;
70414;SDS011;57837;52.064;113.478;2023-12-07T04:27:57;11.18;;;7.13;;
70414;SDS011;57837;52.064;113.478;2023-12-07T04:31:04;31.65;;;11.18;;
70414;SDS011;57837;52.064;113.478;2023-12-07T04:34:12;36.87;;;10.40;;
70414;SDS011;57837;52.064;113.478;2023-12-07T04:37:16;15.60;;;8.00;;
70414;SDS011;57837;52.064;113.478;2023-12-07T04:40:27;13.27;;;9.75;;
70414;SDS011;57837;52.064;113.478;2023-12-07T04:43:33;69.10;;;19.13;;
70414;SDS011;57837;52.064;113.478;2023-12-07T04:46:39;22.30;;;11.45;;
70414;SDS011;57837;52.064;113.478;2023-12-07T04:49:45;17.63;;;11.48;;
70414;SDS011;57837;52.064;113.478;2023-12-07T04:52:50;19.25;;;7.72;;
70414;SDS011;57837;52.064;113.478;2023-12-07T04:56:01;12.93;;;11.30;;
70414;SDS011;57837;52.064;113.478;2023-12-07T04:59:07;26.88;;;9.65;;
70414;SDS011;57837;52.064;113.478;2023-12-07T05:02:13;16.48;;;13.20;;
70414;SDS011;57837;52.064;113.478;2023-12-07T05:05:18;24.67;;;11.03;;
70414;SDS011;57837;52.064;113.478;2023-12-07T05:08:22;10.02;;;6.32;;
70414;SDS011;57837;52.064;113.478;2023-12-07T05:11:29;44.28;;;19.08;;
70414;SDS011;57837;52.064;113.478;2023-12-07T05:14:38;67.03;;;24.35;;
70414;SDS011;57837;52.064;113.478;2023-12-07T05:17:41;51.03;;;19.58;;
70414;SDS011;57837;52.064;113.478;2023-12-07T05:20:48;26.75;;;13.05;;
70414;SDS011;57837;52.064;113.478;2023-12-07T05:23:54;42.17;;;19.95;;
70414;SDS011;57837;52.064;113.478;2023-12-07T05:27:07;50.20;;;16.20;;
70414;SDS011;57837;52.064;113.478;2023-12-07T05:30:21;50.35;;;18.92;;
70414;SDS011;57837;52.064;113.478;2023-12-07T05:33:30;15.50;;;3.60;;
70414;SDS011;57837;52.064;113.478;2023-12-07T05:36:34;12.07;;;8.17;;
70414;SDS011;57837;52.064;113.478;2023-12-07T05:39:40;11.55;;;10.63;;
70414;SDS011;57837;52.064;113.478;2023-12-07T05:42:48;22.52;;;13.15;;
70414;SDS011;57837;52.064;113.478;2023-12-07T05:45:57;8.15;;;7.30;;
70414;SDS011;57837;52.064;113.478;2023-12-07T05:49:11;18.52;;;8.95;;
70414;SDS011;57837;52.064;113.478;2023-12-07T05:52:22;35.63;;;15.95;;
70414;SDS011;57837;52.064;113.478;2023-12-07T05:55:28;30.73;;;15.10;;
70414;SDS011;57837;52.064;113.478;2023-12-07T05:58:36;10.50;;;6.53;;
70414;SDS011;57837;52.064;113.478;2023-12-07T06:01:42;4.20;;;3.85;;
70414;SDS011;57837;52.064;113.478;2023-12-07T06:04:47;23.52;;;9.05;;
70414;SDS011;57837;52.064;113.478;2023-12-07T06:07:51;19.63;;;11.23;;
70414;SDS011;57837;52.064;113.478;2023-12-07T06:10:57;16.95;;;6.43;;
70414;SDS011;57837;52.064;113.478;2023-12-07T06:14:01;14.00;;;7.95;;
70414;SDS011;57837;52.064;113.478;2023-12-07T06:17:10;9.02;;;7.43;;
70414;SDS011;57837;52.064;113.478;2023-12-07T06:20:14;7.50;;;4.30;;
70414;SDS011;57837;52.064;113.478;2023-12-07T06:23:18;25.92;;;11.80;;
70414;SDS011;57837;52.064;113.478;2023-12-07T06:26:23;25.48;;;11.63;;
70414;SDS011;57837;52.064;113.478;2023-12-07T06:29:27;12.13;;;5.43;;
70414;SDS011;57837;52.064;113.478;2023-12-07T06:32:32;13.48;;;7.15;;
70414;SDS011;57837;52.064;113.478;2023-12-07T06:35:37;10.98;;;8.45;;
70414;SDS011;57837;52.064;113.478;2023-12-07T06:38:42;4.20;;;3.23;;
70414;SDS011;57837;52.064;113.478;2023-12-07T06:41:46;22.17;;;11.38;;
70414;SDS011;57837;52.064;113.478;2023-12-07T06:44:59;21.88;;;9.43;;
70414;SDS011;57837;52.064;113.478;2023-12-07T06:48:04;18.25;;;10.38;;
70414;SDS011;57837;52.064;113.478;2023-12-07T06:51:08;29.23;;;9.88;;
70414;SDS011;57837;52.064;113.478;2023-12-07T06:54:14;10.77;;;4.60;;
70414;SDS011;57837;52.064;113.478;2023-12-07T06:57:18;10.00;;;3.45;;
70414;SDS011;57837;52.064;113.478;2023-12-07T07:00:21;26.63;;;8.20;;
70414;SDS011;57837;52.064;113.478;2023-12-07T07:03:27;4.75;;;4.32;;
70414;SDS011;57837;52.064;113.478;2023-12-07T07:06:31;11.93;;;3.88;;
70414;SDS011;57837;52.064;113.478;2023-12-07T07:09:35;14.60;;;7.97;;
70414;SDS011;57837;52.064;113.478;2023-12-07T07:12:39;3.70;;;3.38;;
70414;SDS011;57837;52.064;113.478;2023-12-07T07:15:42;3.55;;;3.22;;
70414;SDS011;57837;52.064;113.478;2023-12-07T07:18:51;6.40;;;4.18;;
70414;SDS011;57837;52.064;113.478;2023-12-07T07:21:55;5.20;;;2.90;;
70414;SDS011;57837;52.064;113.478;2023-12-07T07:24:59;18.65;;;7.32;;
70414;SDS011;57837;52.064;113.478;2023-12-07T07:28:03;13.32;;;7.47;;
70414;SDS011;57837;52.064;113.478;2023-12-07T07:31:07;22.07;;;11.17;;
70414;SDS011;57837;52.064;113.478;2023-12-07T07:34:11;10.68;;;4.75;;
70414;SDS011;57837;52.064;113.478;2023-12-07T07:37:14;12.70;;;6.65;;
70414;SDS011;57837;52.064;113.478;2023-12-07T07:40:17;5.50;;;2.67;;
70414;SDS011;57837;52.064;113.478;2023-12-07T07:43:22;10.70;;;5.47;;
70414;SDS011;57837;52.064;113.478;2023-12-07T07:46:26;2.28;;;2.08;;
70414;SDS011;57837;52.064;113.478;2023-12-07T07:49:30;16.70;;;7.22;;
70414;SDS011;57837;52.064;113.478;2023-12-07T07:52:34;8.90;;;5.32;;
70414;SDS011;57837;52.064;113.478;2023-12-07T07:55:41;13.57;;;6.35;;
70414;SDS011;57837;52.064;113.478;2023-12-07T07:58:45;24.17;;;8.00;;
70414;SDS011;57837;52.064;113.478;2023-12-07T08:01:51;35.83;;;12.93;;
70414;SDS011;57837;52.064;113.478;2023-12-07T08:04:55;17.33;;;8.82;;
70414;SDS011;57837;52.064;113.478;2023-12-07T08:07:59;61.20;;;22.88;;
70414;SDS011;57837;52.064;113.478;2023-12-07T08:11:04;36.30;;;16.67;;
70414;SDS011;57837;52.064;113.478;2023-12-07T08:14:08;17.20;;;8.60;;
70414;SDS011;57837;52.064;113.478;2023-12-07T08:17:12;29.45;;;16.92;;
70414;SDS011;57837;52.064;113.478;2023-12-07T08:20:16;24.23;;;11.95;;
70414;SDS011;57837;52.064;113.478;2023-12-07T08:23:20;7.65;;;4.07;;
70414;SDS011;57837;52.064;113.478;2023-12-07T08:26:49;17.13;;;7.82;;
70414;SDS011;57837;52.064;113.478;2023-12-07T08:29:51;45.13;;;21.00;;
70414;SDS011;57837;52.064;113.478;2023-12-07T08:32:55;53.73;;;21.67;;
70414;SDS011;57837;52.064;113.478;2023-12-07T08:35:58;23.38;;;11.75;;
70414;SDS011;57837;52.064;113.478;2023-12-07T08:39:03;23.95;;;12.50;;
70414;SDS011;57837;52.064;113.478;2023-12-07T08:42:07;9.33;;;8.43;;
70414;SDS011;57837;52.064;113.478;2023-12-07T08:45:12;18.42;;;11.27;;
70414;SDS011;57837;52.064;113.478;2023-12-07T08:48:16;13.02;;;6.03;;
70414;SDS011;57837;52.064;113.478;2023-12-07T08:51:21;17.15;;;5.35;;
70414;SDS011;57837;52.064;113.478;2023-12-07T08:54:26;9.30;;;5.85;;
70414;SDS011;57837;52.064;113.478;2023-12-07T09:00:37;19.15;;;8.23;;
70414;SDS011;57837;52.064;113.478;2023-12-07T09:03:42;5.50;;;3.10;;
70414;SDS011;57837;52.064;113.478;2023-12-07T09:06:46;6.80;;;4.53;;
70414;SDS011;57837;52.064;113.478;2023-12-07T09:09:50;21.95;;;13.63;;
70414;SDS011;57837;52.064;113.478;2023-12-07T09:12:54;7.57;;;3.63;;
70414;SDS011;57837;52.064;113.478;2023-12-07T09:15:57;4.07;;;2.40;;
70414;SDS011;57837;52.064;113.478;2023-12-07T09:19:01;22.15;;;9.48;;
70414;SDS011;57837;52.064;113.478;2023-12-07T09:22:05;9.05;;;6.03;;
70414;SDS011;57837;52.064;113.478;2023-12-07T09:25:09;10.48;;;6.50;;
70414;SDS011;57837;52.064;113.478;2023-12-07T09:28:14;24.52;;;11.40;;
70414;SDS011;57837;52.064;113.478;2023-12-07T09:31:18;23.00;;;11.88;;
70414;SDS011;57837;52.064;113.478;2023-12-07T09:34:21;97.30;;;33.17;;
70414;SDS011;57837;52.064;113.478;2023-12-07T09:37:25;105.45;;;37.75;;
70414;SDS011;57837;52.064;113.478;2023-12-07T09:40:29;65.93;;;28.23;;
70414;SDS011;57837;52.064;113.478;2023-12-07T09:43:33;27.77;;;14.97;;
70414;SDS011;57837;52.064;113.478;2023-12-07T09:46:37;44.20;;;20.50;;
70414;SDS011;57837;52.064;113.478;2023-12-07T09:49:41;8.65;;;3.83;;
70414;SDS011;57837;52.064;113.478;2023-12-07T09:52:47;18.30;;;12.02;;
70414;SDS011;57837;52.064;113.478;2023-12-07T09:56:06;48.78;;;21.63;;
70414;SDS011;57837;52.064;113.478;2023-12-07T09:59:10;12.73;;;10.27;;
70414;SDS011;57837;52.064;113.478;2023-12-07T10:02:13;47.72;;;21.45;;
70414;SDS011;57837;52.064;113.478;2023-12-07T10:05:18;44.33;;;21.43;;
70414;SDS011;57837;52.064;113.478;2023-12-07T10:08:32;38.70;;;19.25;;
70414;SDS011;57837;52.064;113.478;2023-12-07T10:11:40;47.45;;;23.75;;
70414;SDS011;57837;52.064;113.478;2023-12-07T10:14:44;58.87;;;24.17;;
70414;SDS011;57837;52.064;113.478;2023-12-07T10:17:53;34.67;;;13.55;;
70414;SDS011;57837;52.064;113.478;2023-12-07T10:21:02;11.18;;;6.28;;
70414;SDS011;57837;52.064;113.478;2023-12-07T10:24:06;27.92;;;8.05;;
70414;SDS011;57837;52.064;113.478;2023-12-07T10:27:12;33.38;;;16.25;;
70414;SDS011;57837;52.064;113.478;2023-12-07T10:30:15;33.45;;;17.25;;
70414;SDS011;57837;52.064;113.478;2023-12-07T10:33:19;45.47;;;15.13;;
70414;SDS011;57837;52.064;113.478;2023-12-07T10:36:23;52.30;;;28.23;;
70414;SDS011;57837;52.064;113.478;2023-12-07T10:39:27;36.75;;;21.80;;
70414;SDS011;57837;52.064;113.478;2023-12-07T10:42:37;44.17;;;21.00;;
70414;SDS011;57837;52.064;113.478;2023-12-07T10:45:48;46.03;;;19.90;;
70414;SDS011;57837;52.064;113.478;2023-12-07T10:49:04;15.32;;;9.32;;
70414;SDS011;57837;52.064;113.478;2023-12-07T10:52:24;47.35;;;22.58;;
70414;SDS011;57837;52.064;113.478;2023-12-07T10:55:29;49.05;;;19.60;;
70414;SDS011;57837;52.064;113.478;2023-12-07T10:58:38;41.03;;;16.90;;
70414;SDS011;57837;52.064;113.478;2023-12-07T11:01:43;20.20;;;6.38;;
70414;SDS011;57837;52.064;113.478;2023-12-07T11:04:47;41.78;;;12.82;;
70414;SDS011;57837;52.064;113.478;2023-12-07T11:07:55;31.17;;;13.13;;
70414;SDS011;57837;52.064;113.478;2023-12-07T11:11:08;42.67;;;15.98;;
70414;SDS011;57837;52.064;113.478;2023-12-07T11:14:18;25.83;;;11.45;;
70414;SDS011;57837;52.064;113.478;2023-12-07T11:17:22;3.33;;;3.10;;
70414;SDS011;57837;52.064;113.478;2023-12-07T11:20:39;33.50;;;13.60;;
70414;SDS011;57837;52.064;113.478;2023-12-07T11:23:47;78.30;;;30.05;;
70414;SDS011;57837;52.064;113.478;2023-12-07T11:26:54;48.00;;;23.17;;
70414;SDS011;57837;52.064;113.478;2023-12-07T11:30:02;39.55;;;17.00;;
70414;SDS011;57837;52.064;113.478;2023-12-07T11:33:07;35.20;;;18.83;;
70414;SDS011;57837;52.064;113.478;2023-12-07T11:36:13;23.95;;;14.32;;
70414;SDS011;57837;52.064;113.478;2023-12-07T11:39:17;48.17;;;18.77;;
70414;SDS011;57837;52.064;113.478;2023-12-07T11:42:30;42.10;;;18.73;;
70414;SDS011;57837;52.064;113.478;2023-12-07T11:45:41;30.58;;;13.68;;
70414;SDS011;57837;52.064;113.478;2023-12-07T11:48:51;16.73;;;9.07;;
70414;SDS011;57837;52.064;113.478;2023-12-07T11:51:55;39.22;;;17.10;;
70414;SDS011;57837;52.064;113.478;2023-12-07T11:54:59;23.00;;;11.02;;
70414;SDS011;57837;52.064;113.478;2023-12-07T11:58:03;30.20;;;15.90;;
70414;SDS011;57837;52.064;113.478;2023-12-07T12:01:08;5.22;;;2.60;;
70414;SDS011;57837;52.064;113.478;2023-12-07T12:04:12;54.30;;;23.15;;
70414;SDS011;57837;52.064;113.478;2023-12-07T12:07:17;78.22;;;28.98;;
70414;SDS011;57837;52.064;113.478;2023-12-07T12:10:21;23.87;;;10.87;;
70414;SDS011;57837;52.064;113.478;2023-12-07T12:13:28;31.60;;;17.90;;
70414;SDS011;57837;52.064;113.478;2023-12-07T12:16:33;21.90;;;10.65;;
70414;SDS011;57837;52.064;113.478;2023-12-07T12:19:37;48.43;;;19.10;;
70414;SDS011;57837;52.064;113.478;2023-12-07T12:22:41;56.72;;;26.17;;
70414;SDS011;57837;52.064;113.478;2023-12-07T12:25:45;52.30;;;19.40;;
70414;SDS011;57837;52.064;113.478;2023-12-07T12:28:51;18.35;;;6.43;;
70414;SDS011;57837;52.064;113.478;2023-12-07T12:31:55;86.65;;;29.90;;
70414;SDS011;57837;52.064;113.478;2023-12-07T12:35:00;30.70;;;16.17;;
70414;SDS011;57837;52.064;113.478;2023-12-07T12:38:08;7.93;;;5.53;;
70414;SDS011;57837;52.064;113.478;2023-12-07T12:41:25;28.97;;;12.60;;
70414;SDS011;57837;52.064;113.478;2023-12-07T12:44:31;43.28;;;17.55;;
70414;SDS011;57837;52.064;113.478;2023-12-07T12:47:42;24.15;;;15.73;;
70414;SDS011;57837;52.064;113.478;2023-12-07T12:50:46;10.13;;;4.97;;
70414;SDS011;57837;52.064;113.478;2023-12-07T12:53:52;40.80;;;17.25;;
70414;SDS011;57837;52.064;113.478;2023-12-07T12:56:57;46.95;;;17.27;;
70414;SDS011;57837;52.064;113.478;2023-12-07T13:00:02;47.78;;;17.67;;
70414;SDS011;57837;52.064;113.478;2023-12-07T13:03:06;71.65;;;20.63;;
70414;SDS011;57837;52.064;113.478;2023-12-07T13:06:11;32.42;;;12.60;;
70414;SDS011;57837;52.064;113.478;2023-12-07T13:09:17;33.72;;;12.07;;
70414;SDS011;57837;52.064;113.478;2023-12-07T13:12:23;14.50;;;7.37;;
70414;SDS011;57837;52.064;113.478;2023-12-07T13:15:30;7.63;;;4.47;;
70414;SDS011;57837;52.064;113.478;2023-12-07T13:18:34;4.18;;;3.40;;
70414;SDS011;57837;52.064;113.478;2023-12-07T13:21:37;3.33;;;2.00;;
70414;SDS011;57837;52.064;113.478;2023-12-07T13:24:41;12.80;;;3.53;;
70414;SDS011;57837;52.064;113.478;2023-12-07T13:27:44;6.55;;;1.88;;
70414;SDS011;57837;52.064;113.478;2023-12-07T13:30:48;9.32;;;3.70;;
70414;SDS011;57837;52.064;113.478;2023-12-07T13:33:51;2.80;;;1.60;;
70414;SDS011;57837;52.064;113.478;2023-12-07T13:36:59;3.38;;;2.67;;
70414;SDS011;57837;52.064;113.478;2023-12-07T13:40:02;5.47;;;1.70;;
70414;SDS011;57837;52.064;113.478;2023-12-07T13:43:06;11.03;;;3.87;;
70414;SDS011;57837;52.064;113.478;2023-12-07T13:46:11;6.10;;;1.98;;
70414;SDS011;57837;52.064;113.478;2023-12-07T13:49:15;11.85;;;5.80;;
70414;SDS011;57837;52.064;113.478;2023-12-07T13:52:30;18.50;;;5.77;;
70414;SDS011;57837;52.064;113.478;2023-12-07T13:55:34;17.02;;;5.70;;
70414;SDS011;57837;52.064;113.478;2023-12-07T13:58:38;13.35;;;6.88;;
70414;SDS011;57837;52.064;113.478;2023-12-07T14:01:42;3.20;;;1.38;;
70414;SDS011;57837;52.064;113.478;2023-12-07T14:04:46;2.65;;;1.95;;
70414;SDS011;57837;52.064;113.478;2023-12-07T14:07:53;13.38;;;4.60;;
70414;SDS011;57837;52.064;113.478;2023-12-07T14:10:56;6.40;;;5.78;;
70414;SDS011;57837;52.064;113.478;2023-12-07T14:14:00;12.60;;;7.13;;
70414;SDS011;57837;52.064;113.478;2023-12-07T14:17:05;13.40;;;9.23;;
70414;SDS011;57837;52.064;113.478;2023-12-07T14:20:13;22.88;;;12.60;;
70414;SDS011;57837;52.064;113.478;2023-12-07T14:23:39;22.37;;;9.53;;
70414;SDS011;57837;52.064;113.478;2023-12-07T14:26:53;20.35;;;11.18;;
70414;SDS011;57837;52.064;113.478;2023-12-07T14:29:58;21.92;;;9.25;;
70414;SDS011;57837;52.064;113.478;2023-12-07T14:33:02;14.40;;;7.78;;
70414;SDS011;57837;52.064;113.478;2023-12-07T14:36:08;10.05;;;6.10;;
70414;SDS011;57837;52.064;113.478;2023-12-07T14:39:13;8.07;;;4.60;;
70414;SDS011;57837;52.064;113.478;2023-12-07T14:42:21;28.98;;;8.85;;
70414;SDS011;57837;52.064;113.478;2023-12-07T14:45:25;10.37;;;3.90;;
70414;SDS011;57837;52.064;113.478;2023-12-07T14:48:29;8.55;;;5.05;;
70414;SDS011;57837;52.064;113.478;2023-12-07T14:51:33;22.38;;;7.18;;
70414;SDS011;57837;52.064;113.478;2023-12-07T14:54:38;7.53;;;3.67;;
70414;SDS011;57837;52.064;113.478;2023-12-07T14:57:42;8.48;;;5.32;;
70414;SDS011;57837;52.064;113.478;2023-12-07T15:00:46;4.63;;;3.47;;
70414;SDS011;57837;52.064;113.478;2023-12-07T15:03:50;23.67;;;7.68;;
70414;SDS011;57837;52.064;113.478;2023-12-07T15:06:54;2.75;;;2.55;;
70414;SDS011;57837;52.064;113.478;2023-12-07T15:09:57;1.95;;;1.80;;
70414;SDS011;57837;52.064;113.478;2023-12-07T15:13:01;16.15;;;6.90;;
70414;SDS011;57837;52.064;113.478;2023-12-07T15:16:05;25.03;;;9.30;;
70414;SDS011;57837;52.064;113.478;2023-12-07T15:19:11;2.83;;;1.85;;
70414;SDS011;57837;52.064;113.478;2023-12-07T15:22:15;5.30;;;3.78;;
70414;SDS011;57837;52.064;113.478;2023-12-07T15:25:19;3.50;;;3.17;;
70414;SDS011;57837;52.064;113.478;2023-12-07T15:28:24;6.18;;;4.85;;
70414;SDS011;57837;52.064;113.478;2023-12-07T15:31:28;14.70;;;8.63;;
70414;SDS011;57837;52.064;113.478;2023-12-07T15:34:31;22.80;;;7.63;;
70414;SDS011;57837;52.064;113.478;2023-12-07T15:37:42;8.68;;;4.57;;
70414;SDS011;57837;52.064;113.478;2023-12-07T15:40:47;3.75;;;2.83;;
70414;SDS011;57837;52.064;113.478;2023-12-07T15:43:51;1.10;;;0.75;;
70414;SDS011;57837;52.064;113.478;2023-12-07T15:46:54;15.07;;;6.97;;
70414;SDS011;57837;52.064;113.478;2023-12-07T15:49:58;11.68;;;5.00;;
70414;SDS011;57837;52.064;113.478;2023-12-07T15:53:01;22.20;;;8.30;;
70414;SDS011;57837;52.064;113.478;2023-12-07T15:56:05;8.43;;;4.20;;
70414;SDS011;57837;52.064;113.478;2023-12-07T15:59:08;3.55;;;2.70;;
70414;SDS011;57837;52.064;113.478;2023-12-07T16:02:12;3.97;;;2.92;;
70414;SDS011;57837;52.064;113.478;2023-12-07T16:05:15;10.70;;;6.82;;
70414;SDS011;57837;52.064;113.478;2023-12-07T16:08:19;4.47;;;1.20;;
70414;SDS011;57837;52.064;113.478;2023-12-07T16:11:22;11.02;;;6.53;;
70414;SDS011;57837;52.064;113.478;2023-12-07T16:14:26;10.25;;;5.93;;
70414;SDS011;57837;52.064;113.478;2023-12-07T16:17:32;7.43;;;4.27;;
70414;SDS011;57837;52.064;113.478;2023-12-07T16:20:35;6.90;;;4.93;;
70414;SDS011;57837;52.064;113.478;2023-12-07T16:23:39;6.22;;;4.90;;
70414;SDS011;57837;52.064;113.478;2023-12-07T16:26:43;7.70;;;4.60;;
70414;SDS011;57837;52.064;113.478;2023-12-07T16:29:46;8.48;;;4.78;;
70414;SDS011;57837;52.064;113.478;2023-12-07T16:32:49;20.13;;;9.20;;
70414;SDS011;57837;52.064;113.478;2023-12-07T16:35:52;6.72;;;6.13;;
70414;SDS011;57837;52.064;113.478;2023-12-07T16:38:57;8.68;;;7.93;;
70414;SDS011;57837;52.064;113.478;2023-12-07T16:42:03;31.02;;;11.70;;
70414;SDS011;57837;52.064;113.478;2023-12-07T16:45:07;5.40;;;3.78;;
70414;SDS011;57837;52.064;113.478;2023-12-07T16:48:10;5.87;;;2.00;;
70414;SDS011;57837;52.064;113.478;2023-12-07T16:51:13;3.75;;;3.30;;
70414;SDS011;57837;52.064;113.478;2023-12-07T16:54:17;15.60;;;7.13;;
70414;SDS011;57837;52.064;113.478;2023-12-07T16:57:20;17.57;;;7.27;;
70414;SDS011;57837;52.064;113.478;2023-12-07T17:00:24;9.27;;;5.75;;
70414;SDS011;57837;52.064;113.478;2023-12-07T17:03:27;5.65;;;5.18;;
70414;SDS011;57837;52.064;113.478;2023-12-07T17:06:30;9.95;;;4.88;;
70414;SDS011;57837;52.064;113.478;2023-12-07T17:09:47;20.25;;;17.13;;
70414;SDS011;57837;52.064;113.478;2023-12-07T17:12:52;8.27;;;5.50;;
70414;SDS011;57837;52.064;113.478;2023-12-07T17:15:55;18.40;;;10.57;;
70414;SDS011;57837;52.064;113.478;2023-12-07T17:19:01;5.00;;;3.93;;
70414;SDS011;57837;52.064;113.478;2023-12-07T17:22:05;40.30;;;9.82;;
70414;SDS011;57837;52.064;113.478;2023-12-07T17:25:11;25.05;;;14.48;;
70414;SDS011;57837;52.064;113.478;2023-12-07T17:28:16;35.40;;;10.67;;
70414;SDS011;57837;52.064;113.478;2023-12-07T17:31:21;12.38;;;6.55;;
70414;SDS011;57837;52.064;113.478;2023-12-07T17:34:24;4.22;;;3.35;;
70414;SDS011;57837;52.064;113.478;2023-12-07T17:37:29;7.55;;;3.05;;
70414;SDS011;57837;52.064;113.478;2023-12-07T17:40:33;12.07;;;6.07;;
70414;SDS011;57837;52.064;113.478;2023-12-07T17:43:36;22.33;;;8.43;;
70414;SDS011;57837;52.064;113.478;2023-12-07T17:46:41;6.10;;;3.47;;